Time;durP1;ratioP1;P1;durP2;ratioP2;P2;SDS_P1;SDS_P2;PMS_P1;PMS_P2;Temp;Humidity;BMP_temperature;BMP_pressure;BME280_temperature;BME280_humidity;BME280_pressure;Samples;Min_cycle;Max_cycle;Signal;HPM_P1;HPM_P2
2022/04/25 00:02:25;;;;;;;0.20;0.20;;;8.00;99.90;;;8.00;100.00;99706.56;4984362;28;20218;-63
2022/04/25 00:04:53;;;;;;;0.20;0.20;;;8.00;99.90;;;7.83;100.00;99695.03;4992253;28;20215;-63
2022/04/25 00:07:21;;;;;;;0.30;0.30;;;8.00;99.90;;;7.81;100.00;99698.50;5004215;28;20221;-62
2022/04/25 00:09:49;;;;;;;0.20;0.20;;;8.00;99.90;;;7.83;100.00;99708.19;5009398;28;20230;-63
2022/04/25 00:12:17;;;;;;;0.20;0.20;;;8.00;99.90;;;7.77;100.00;99709.84;5023039;28;20207;-63
2022/04/25 00:14:51;;;;;;;0.20;0.20;;;7.90;99.90;;;7.75;100.00;99723.00;5090423;27;20570;-62
2022/04/25 00:17:19;;;;;;;0.20;0.20;;;7.90;99.90;;;7.70;100.00;99714.19;5035886;28;20227;-63
2022/04/25 00:19:47;;;;;;;0.20;0.20;;;7.90;99.90;;;7.74;100.00;99715.09;5014036;28;20223;-63
2022/04/25 00:22:15;;;;;;;0.20;0.20;;;7.90;99.90;;;7.73;100.00;99708.94;5039234;28;20214;-63
2022/04/25 00:24:44;;;;;;;0.22;0.22;;;7.90;99.90;;;7.74;100.00;99700.19;5001904;28;20214;-62
2022/04/25 00:27:13;;;;;;;0.20;0.20;;;7.90;99.90;;;7.62;100.00;99703.59;5002198;28;20687;-63
2022/04/25 00:29:40;;;;;;;0.20;0.20;;;7.80;99.90;;;7.47;100.00;99711.34;5048909;28;20242;-63
2022/04/25 00:32:08;;;;;;;0.20;0.20;;;7.80;99.90;;;7.25;100.00;99722.50;5005133;28;20213;-62
2022/04/25 00:34:36;;;;;;;0.30;0.30;;;7.70;99.90;;;7.22;100.00;99736.50;5007397;28;20236;-62
2022/04/25 00:37:04;;;;;;;0.20;0.20;;;7.60;99.90;;;7.24;100.00;99753.16;5023017;28;20214;-62
2022/04/25 00:39:33;;;;;;;0.20;0.20;;;7.50;99.90;;;7.18;100.00;99758.34;5026362;28;20218;-63
2022/04/25 00:42:00;;;;;;;0.20;0.20;;;7.40;99.90;;;7.22;100.00;99759.28;5033968;28;20202;-62
2022/04/25 00:44:28;;;;;;;0.40;0.40;;;7.40;99.90;;;7.28;100.00;99768.13;5025296;28;20212;-62
2022/04/25 00:46:59;;;;;;;0.20;0.20;;;7.40;99.90;;;7.11;100.00;99764.41;5034685;28;20208;-63
2022/04/25 00:49:26;;;;;;;0.20;0.20;;;7.40;99.90;;;7.12;100.00;99781.94;5038463;28;20223;-62
2022/04/25 00:51:54;;;;;;;0.20;0.20;;;7.40;99.90;;;7.06;100.00;99780.13;5022887;28;20219;-62
2022/04/25 00:54:23;;;;;;;0.20;0.20;;;7.30;99.90;;;7.22;100.00;99794.34;5017492;28;20219;-62
2022/04/25 00:56:51;;;;;;;0.20;0.20;;;7.30;99.90;;;7.32;100.00;99797.97;5022203;28;20273;-63
2022/04/25 00:59:21;;;;;;;0.20;0.20;;;7.30;99.90;;;7.34;100.00;99788.34;5018073;28;20231;-62
2022/04/25 01:01:52;;;;;;;0.20;0.20;;;7.30;99.90;;;7.33;100.00;99774.31;5027327;28;20207;-63
2022/04/25 01:04:21;;;;;;;0.20;0.20;;;7.30;99.90;;;7.38;100.00;99763.84;5019604;28;20203;-62
2022/04/25 01:06:48;;;;;;;0.20;0.20;;;7.30;99.90;;;7.37;100.00;99749.81;5029787;28;20219;-62
2022/04/25 01:09:17;;;;;;;0.20;0.20;;;7.30;99.90;;;7.34;100.00;99752.41;5029153;28;20224;-63
2022/04/25 01:11:45;;;;;;;0.20;0.20;;;7.40;99.90;;;7.36;100.00;99773.47;5020595;28;20209;-62
2022/04/25 01:14:18;;;;;;;0.20;0.20;;;7.30;99.90;;;7.31;100.00;99762.91;5027026;28;20222;-63
2022/04/25 01:16:50;;;;;;;0.20;0.20;;;7.40;99.90;;;7.22;100.00;99761.91;5017807;28;20212;-62
2022/04/25 01:19:18;;;;;;;0.30;0.30;;;7.30;99.90;;;7.38;100.00;99772.63;5020196;28;20232;-62
2022/04/25 01:22:10;;;;;;;0.20;0.20;;;7.30;99.90;;;7.28;100.00;99764.59;5014509;28;20586;-63
2022/04/25 01:27:27;;;;;;;0.20;0.20;;;7.30;99.90;;;7.24;100.00;99744.41;5018455;28;20203;-63
2022/04/25 01:29:55;;;;;;;0.20;0.20;;;7.30;99.90;;;7.22;100.00;99746.13;5035612;28;20223;-62
2022/04/25 01:32:24;;;;;;;0.20;0.20;;;7.30;99.90;;;7.00;100.00;99753.75;4985927;28;20196;-62
2022/04/25 01:34:52;;;;;;;0.10;0.10;;;7.30;99.90;;;6.91;100.00;99777.31;4992155;28;20236;-63
2022/04/25 01:37:20;;;;;;;0.20;0.20;;;7.20;99.90;;;6.83;100.00;99785.94;5004096;28;20211;-62
2022/04/25 01:39:52;;;;;;;0.17;0.17;;;7.10;99.90;;;6.84;100.00;99790.34;4994458;28;20595;-62
2022/04/25 01:42:20;;;;;;;0.20;0.20;;;7.10;99.90;;;6.87;100.00;99799.16;5005944;28;20671;-62
2022/04/25 01:44:49;;;;;;;0.20;0.20;;;7.00;99.90;;;6.53;100.00;99791.66;4991484;28;20207;-63
2022/04/25 01:47:19;;;;;;;0.20;0.20;;;7.00;99.90;;;6.38;100.00;99811.53;5027729;28;20207;-62
2022/04/25 01:49:46;;;;;;;0.20;0.20;;;6.90;99.90;;;6.47;100.00;99833.56;5023665;28;20230;-62
2022/04/25 01:52:31;;;;;;;0.30;0.30;;;6.80;99.90;;;6.61;100.00;99847.81;5024240;28;20205;-63
2022/04/25 01:55:01;;;;;;;0.20;0.20;;;6.80;99.90;;;6.52;100.00;99855.56;4997476;28;20227;-62
2022/04/25 01:57:29;;;;;;;0.20;0.20;;;6.70;99.90;;;6.50;100.00;99866.03;5017985;28;20223;-62
2022/04/25 01:59:58;;;;;;;0.20;0.20;;;6.70;99.90;;;6.46;100.00;99869.44;5019456;28;20223;-62
2022/04/25 02:02:26;;;;;;;0.20;0.20;;;6.60;99.90;;;6.45;100.00;99869.41;5000994;28;20204;-62
2022/04/25 02:04:54;;;;;;;0.30;0.30;;;6.60;99.90;;;6.47;100.00;99880.81;5017193;28;20651;-62
2022/04/25 02:07:22;;;;;;;0.20;0.20;;;6.60;99.90;;;6.32;100.00;99871.84;5001795;28;20226;-62
2022/04/25 02:09:50;;;;;;;0.20;0.20;;;6.60;99.90;;;6.18;100.00;99877.72;5007283;28;20235;-62
2022/04/25 02:12:20;;;;;;;0.20;0.20;;;6.50;99.90;;;6.24;100.00;99880.44;5008195;28;20208;-63
2022/04/25 02:14:48;;;;;;;0.20;0.20;;;6.40;99.90;;;6.37;100.00;99888.56;4999362;28;20242;-63
2022/04/25 02:17:16;;;;;;;0.20;0.20;;;6.40;99.90;;;6.35;100.00;99884.13;5021989;28;20214;-62
2022/04/25 02:19:44;;;;;;;0.20;0.20;;;6.50;99.90;;;6.29;100.00;99873.53;5016888;28;20235;-63
2022/04/25 02:22:13;;;;;;;0.20;0.20;;;6.40;99.90;;;6.29;100.00;99856.03;5005603;28;20202;-63
2022/04/25 02:24:41;;;;;;;0.20;0.20;;;6.40;99.90;;;6.16;100.00;99830.44;4979709;28;20226;-62
2022/04/25 02:27:10;;;;;;;0.20;0.20;;;6.40;99.90;;;6.05;100.00;99843.38;5017302;28;20675;-62
2022/04/25 02:29:39;;;;;;;0.20;0.20;;;6.40;99.90;;;5.90;100.00;99865.81;5005434;28;20226;-63
2022/04/25 02:32:12;;;;;;;0.20;0.20;;;6.30;99.90;;;5.75;100.00;99874.25;4996485;28;20211;-62
2022/04/25 02:34:42;;;;;;;0.20;0.20;;;6.30;99.90;;;5.55;100.00;99893.97;5015561;28;20250;-62
2022/04/25 02:37:10;;;;;;;0.20;0.20;;;6.10;99.90;;;5.68;100.00;99920.47;5008961;28;20211;-62
2022/04/25 02:39:38;;;;;;;0.20;0.20;;;6.10;99.90;;;5.53;100.00;99907.03;5016693;28;20251;-63
2022/04/25 02:42:06;;;;;;;0.20;0.20;;;6.00;99.90;;;5.57;100.00;99923.72;5016077;28;20204;-63
2022/04/25 02:44:34;;;;;;;0.10;0.10;;;5.90;99.90;;;5.56;100.00;99930.72;5001489;28;20218;-63
2022/04/25 02:47:03;;;;;;;0.20;0.20;;;5.90;99.90;;;5.68;100.00;99945.81;5032524;28;20207;-63
2022/04/25 02:49:31;;;;;;;0.30;0.30;;;6.00;99.90;;;5.87;100.00;99971.59;4996907;28;20249;-62
2022/04/25 02:51:59;;;;;;;0.20;0.20;;;6.00;99.90;;;5.86;100.00;99971.56;4980977;28;20207;-62
2022/04/25 02:54:27;;;;;;;0.20;0.20;;;6.00;99.90;;;5.75;100.00;99960.84;5035855;28;20223;-62
2022/04/25 02:56:55;;;;;;;0.20;0.20;;;6.00;99.90;;;5.57;100.00;99947.34;5002435;28;20199;-63
2022/04/25 02:59:23;;;;;;;0.20;0.20;;;6.00;99.90;;;5.67;100.00;99971.16;5025089;28;20231;-63
2022/04/25 03:01:51;;;;;;;0.20;0.20;;;5.90;99.90;;;5.71;100.00;99969.50;5004984;28;20211;-62
2022/04/25 03:04:19;;;;;;;0.30;0.30;;;6.00;99.90;;;5.62;100.00;99957.06;5017315;28;20207;-63
2022/04/25 03:06:47;;;;;;;0.20;0.20;;;5.90;99.90;;;5.47;100.00;99968.13;4992136;28;20211;-62
2022/04/25 03:09:15;;;;;;;0.20;0.20;;;5.90;99.90;;;5.36;100.00;99980.09;4984215;28;20224;-62
2022/04/25 03:11:43;;;;;;;0.20;0.20;;;5.80;99.90;;;5.44;100.00;99990.78;4983827;28;20219;-62
2022/04/25 03:14:11;;;;;;;0.20;0.20;;;5.80;99.90;;;5.25;100.00;99994.72;5029499;28;20214;-63
2022/04/25 03:16:39;;;;;;;0.20;0.20;;;5.80;99.90;;;5.37;100.00;99989.75;5006197;28;20234;-63
2022/04/25 03:19:09;;;;;;;0.20;0.20;;;5.70;99.90;;;5.72;100.00;100019.38;5014007;28;20223;-63
2022/04/25 03:21:37;;;;;;;0.20;0.20;;;5.80;99.90;;;5.70;100.00;100028.06;5000852;28;20207;-63
2022/04/25 03:24:05;;;;;;;0.20;0.20;;;5.80;99.90;;;5.60;100.00;100013.88;5024581;28;20695;-62
2022/04/25 03:26:33;;;;;;;0.20;0.20;;;5.80;99.90;;;5.50;100.00;99997.88;5002510;28;20206;-62
2022/04/25 03:29:01;;;;;;;0.30;0.30;;;5.80;99.90;;;5.46;100.00;100000.44;5000813;28;20220;-62
2022/04/25 03:31:29;;;;;;;0.20;0.20;;;5.80;99.90;;;5.39;100.00;100016.88;4981189;28;20227;-62
2022/04/25 03:33:57;;;;;;;0.20;0.20;;;5.70;99.90;;;5.45;100.00;100027.50;5007653;28;20211;-62
2022/04/25 03:36:26;;;;;;;0.20;0.20;;;5.70;99.90;;;5.55;100.00;100032.97;5016808;28;20246;-62
2022/04/25 03:38:54;;;;;;;0.28;0.28;;;5.80;99.90;;;5.56;100.00;100035.63;4998803;28;20224;-62
2022/04/25 03:41:22;;;;;;;0.20;0.20;;;5.80;99.90;;;5.63;100.00;100049.78;5018180;28;20203;-62
2022/04/25 03:43:49;;;;;;;0.20;0.20;;;5.80;99.90;;;5.65;100.00;100061.19;5010641;28;20210;-62
2022/04/25 03:46:17;;;;;;;0.20;0.20;;;5.90;99.90;;;5.68;100.00;100069.13;5010065;28;20215;-62
2022/04/25 03:48:45;;;;;;;0.20;0.20;;;5.90;99.90;;;5.71;100.00;100064.81;5023239;28;20242;-62
2022/04/25 03:51:14;;;;;;;0.20;0.20;;;5.90;99.90;;;5.70;100.00;100077.91;5023744;28;20206;-62
2022/04/25 03:53:42;;;;;;;0.20;0.20;;;5.90;99.90;;;5.59;100.00;100080.28;5003144;28;20215;-62
2022/04/25 03:58:56;;;;;;;0.20;0.20;;;5.90;99.90;;;5.42;100.00;100084.25;5035877;28;20223;-62
2022/04/25 04:01:23;;;;;;;0.50;0.50;;;5.80;99.90;;;5.36;100.00;100074.50;5005624;28;20671;-62
2022/04/25 04:03:51;;;;;;;0.20;0.20;;;5.70;99.90;;;5.37;100.00;100076.28;4994603;28;20211;-62
2022/04/25 04:06:31;;;;;;;0.20;0.20;;;5.70;99.90;;;5.43;100.00;100089.53;5031718;28;20218;-62
2022/04/25 04:09:44;;;;;;;0.20;0.20;;;5.60;99.90;;;5.39;100.00;100098.19;5004951;28;20223;-63
2022/04/25 04:11:54;;;;;;;0.20;0.20;;;5.60;99.90;;;5.28;100.00;100104.00;5020880;28;20207;-62
2022/04/25 04:14:22;;;;;;;0.30;0.30;;;5.60;99.90;;;5.18;100.00;100092.38;5009338;28;20215;-62
2022/04/25 04:16:50;;;;;;;0.30;0.30;;;5.60;99.90;;;5.25;100.00;100117.03;5003951;28;20243;-63
2022/04/25 04:19:17;;;;;;;0.25;0.25;;;5.60;99.90;;;5.23;100.00;100116.13;5024088;28;20231;-62
2022/04/25 04:21:45;;;;;;;0.20;0.20;;;5.60;99.90;;;5.22;100.00;100116.97;5034492;28;20211;-62
2022/04/25 04:24:13;;;;;;;0.20;0.20;;;5.60;99.90;;;5.30;100.00;100141.63;4982989;28;20210;-63
2022/04/25 04:26:42;;;;;;;0.20;0.20;;;5.60;99.90;;;5.30;100.00;100144.25;4982449;28;20700;-62
2022/04/25 04:29:11;;;;;;;0.20;0.20;;;5.60;99.90;;;5.28;100.00;100157.31;5027583;28;20594;-63
2022/04/25 04:31:39;;;;;;;0.20;0.20;;;5.60;99.90;;;5.38;100.00;100163.69;5026029;28;20202;-62
2022/04/25 04:34:07;;;;;;;0.20;0.20;;;5.60;99.90;;;5.38;100.00;100177.69;4998199;28;20214;-63
2022/04/25 04:36:35;;;;;;;0.10;0.10;;;5.70;99.90;;;5.35;100.00;100182.84;5016519;28;20227;-62
2022/04/25 04:39:03;;;;;;;0.20;0.20;;;5.70;99.90;;;5.41;100.00;100196.13;5021403;28;20219;-62
2022/04/25 04:41:31;;;;;;;0.20;0.20;;;5.70;99.90;;;5.47;100.00;100201.53;5010410;28;20215;-62
2022/04/25 04:43:59;;;;;;;0.20;0.20;;;5.70;99.90;;;5.61;100.00;100208.84;5004024;28;20227;-63
2022/04/25 04:46:27;;;;;;;0.20;0.20;;;5.80;99.90;;;5.81;100.00;100215.50;5030355;28;20219;-63
2022/04/25 04:48:55;;;;;;;0.30;0.30;;;5.90;99.90;;;5.91;100.00;100217.53;5001670;28;20702;-62
2022/04/25 04:51:23;;;;;;;0.20;0.20;;;6.00;99.90;;;6.03;100.00;100224.81;5008560;28;20211;-63
2022/04/25 04:53:51;;;;;;;0.20;0.20;;;6.10;99.90;;;6.15;100.00;100226.81;5005864;28;20223;-63
2022/04/25 04:56:18;;;;;;;0.20;0.20;;;6.20;99.90;;;6.16;100.00;100212.84;4988745;28;20223;-62
2022/04/25 04:58:46;;;;;;;0.38;0.38;;;6.20;99.90;;;6.17;100.00;100218.13;5003724;28;20226;-63
2022/04/25 05:01:14;;;;;;;0.20;0.20;;;6.30;99.90;;;6.25;100.00;100240.19;5001889;28;20199;-63
2022/04/25 05:03:43;;;;;;;0.17;0.17;;;6.30;99.90;;;6.25;100.00;100244.56;4987754;28;20218;-63
2022/04/25 05:06:12;;;;;;;0.20;0.20;;;6.30;99.90;;;6.23;100.00;100256.78;5003731;28;20204;-63
2022/04/25 05:08:40;;;;;;;0.20;0.20;;;6.30;99.90;;;6.15;100.00;100263.59;5031379;28;20234;-63
2022/04/25 05:11:09;;;;;;;0.20;0.20;;;6.30;99.90;;;6.08;100.00;100255.56;4996480;28;20203;-63
2022/04/25 05:13:37;;;;;;;0.20;0.20;;;6.30;99.90;;;6.11;100.00;100267.88;4993355;28;20219;-63
2022/04/25 05:16:06;;;;;;;0.20;0.20;;;6.30;99.90;;;6.18;100.00;100279.41;5009125;28;20235;-63
2022/04/25 05:18:34;;;;;;;0.20;0.20;;;6.30;99.90;;;6.26;100.00;100288.34;5025608;28;20224;-63
2022/04/25 05:21:03;;;;;;;0.20;0.20;;;6.30;99.90;;;6.32;100.00;100302.53;5028587;28;20278;-63
2022/04/25 05:23:31;;;;;;;0.30;0.30;;;6.40;99.90;;;6.39;100.00;100306.19;5027784;28;20199;-63
2022/04/25 05:25:59;;;;;;;0.20;0.20;;;6.40;99.90;;;6.38;100.00;100318.44;5028624;28;20207;-63
2022/04/25 05:28:29;;;;;;;0.20;0.20;;;6.60;99.90;;;6.46;100.00;100323.84;5011143;28;20223;-63
2022/04/25 05:30:56;;;;;;;0.20;0.20;;;6.50;99.90;;;6.53;100.00;100331.06;5013550;28;20203;-63
2022/04/25 05:33:24;;;;;;;0.57;0.57;;;6.60;99.90;;;6.50;100.00;100343.22;4995688;28;20212;-63
2022/04/25 05:35:52;;;;;;;0.20;0.20;;;6.60;99.90;;;6.49;100.00;100342.31;4994030;28;20224;-63
2022/04/25 05:38:21;;;;;;;0.85;0.85;;;6.60;99.90;;;6.50;100.00;100349.38;5029176;28;20219;-62
2022/04/25 05:40:50;;;;;;;0.20;0.20;;;6.60;99.90;;;6.46;100.00;100347.50;5027240;28;20203;-63
2022/04/25 05:43:18;;;;;;;0.20;0.20;;;6.60;99.90;;;6.52;100.00;100358.19;5029076;28;20210;-62
2022/04/25 05:45:47;;;;;;;0.20;0.20;;;6.60;99.90;;;6.58;100.00;100360.97;4995719;28;20686;-63
2022/04/25 05:53:49;;;;;;;0.20;0.20;;;6.70;99.90;;;6.62;100.00;100375.94;5030361;28;20215;-64
2022/04/25 05:56:16;;;;;;;0.20;0.20;;;6.70;99.90;;;6.77;100.00;100399.06;4995438;28;20218;-64
2022/04/25 05:58:44;;;;;;;0.40;0.40;;;6.80;99.90;;;6.84;100.00;100408.88;5028742;28;20593;-63
2022/04/25 06:01:12;;;;;;;0.10;0.10;;;6.90;99.90;;;6.83;100.00;100400.97;5007951;28;20199;-63
2022/04/25 06:03:40;;;;;;;0.10;0.10;;;6.90;99.90;;;6.87;100.00;100405.44;4997707;28;20399;-62
2022/04/25 06:06:08;;;;;;;0.10;0.10;;;6.90;99.90;;;6.94;100.00;100402.97;5003520;28;20211;-63
2022/04/25 06:08:39;;;;;;;0.10;0.10;;;7.00;99.90;;;7.00;100.00;100400.50;5019480;28;20319;-63
2022/04/25 06:11:08;;;;;;;0.20;0.20;;;7.00;99.90;;;7.04;100.00;100378.69;5012683;28;20210;-63
2022/04/25 06:13:35;;;;;;;0.20;0.20;;;7.10;99.90;;;7.14;100.00;100366.63;5018919;28;20211;-62
2022/04/25 06:16:05;;;;;;;0.20;0.20;;;7.20;99.90;;;7.16;100.00;100364.03;4974029;28;20226;-63
2022/04/25 06:18:33;;;;;;;0.20;0.20;;;7.20;99.90;;;7.19;100.00;100357.09;4999099;28;20241;-63
2022/04/25 06:21:01;;;;;;;0.20;0.20;;;7.30;99.90;;;7.18;100.00;100354.41;4993229;28;20199;-63
2022/04/25 06:23:32;;;;;;;0.20;0.20;;;7.30;99.90;;;7.23;100.00;100343.13;4986889;28;20203;-63
2022/04/25 06:26:00;;;;;;;0.20;0.20;;;7.30;99.90;;;7.32;100.00;100329.28;4981819;28;20672;-63
2022/04/25 06:28:29;;;;;;;0.10;0.10;;;7.40;99.90;;;7.29;100.00;100316.06;5004759;28;20254;-64
2022/04/25 06:30:57;;;;;;;0.10;0.10;;;7.40;99.90;;;7.35;100.00;100301.31;5020261;28;20219;-63
2022/04/25 06:33:25;;;;;;;0.20;0.20;;;7.50;99.90;;;7.41;100.00;100295.28;5023934;28;20211;-63
2022/04/25 06:35:53;;;;;;;0.43;0.43;;;7.50;99.90;;;7.55;100.00;100298.16;4994632;28;20221;-63
2022/04/25 06:38:21;;;;;;;0.20;0.20;;;7.60;99.90;;;7.59;100.00;100276.31;5010186;28;20231;-62
2022/04/25 06:40:49;;;;;;;0.15;0.15;;;7.70;99.90;;;7.82;100.00;100282.03;5012331;28;20270;-63
2022/04/25 06:43:17;;;;;;;0.10;0.10;;;7.80;99.90;;;7.87;100.00;100265.44;5002293;28;20207;-62
2022/04/25 06:45:46;;;;;;;0.20;0.20;;;7.80;99.90;;;8.02;100.00;100276.25;5013512;28;20207;-63
2022/04/25 06:48:14;;;;;;;0.40;0.40;;;7.90;99.90;;;8.20;100.00;100274.75;4997775;28;20227;-62
2022/04/25 06:50:50;;;;;;;0.20;0.20;;;8.10;99.90;;;8.29;100.00;100269.63;5001232;28;20195;-63
2022/04/25 06:53:18;;;;;;;0.20;0.20;;;8.20;99.90;;;8.23;100.00;100244.09;5023010;28;20203;-63
2022/04/25 06:55:46;;;;;;;0.50;0.50;;;8.20;99.90;;;8.40;100.00;100222.41;5033674;28;20212;-62
2022/04/25 06:58:15;;;;;;;0.20;0.20;;;8.20;99.90;;;8.34;100.00;100207.41;4979512;28;20240;-63
2022/04/25 07:00:43;;;;;;;0.20;0.20;;;8.30;99.90;;;8.61;100.00;100207.78;5001163;28;20215;-63
2022/04/25 07:03:11;;;;;;;0.20;0.20;;;8.40;99.90;;;8.69;100.00;100194.69;5010752;28;20222;-63
2022/04/25 07:05:39;;;;;;;0.20;0.20;;;8.60;99.90;;;8.85;100.00;100190.50;5001654;28;20282;-62
2022/04/25 07:08:07;;;;;;;0.10;0.10;;;8.60;99.90;;;8.99;100.00;100181.00;5008314;28;20227;-63
2022/04/25 07:10:35;;;;;;;0.20;0.20;;;8.70;99.90;;;9.19;100.00;100187.41;5009750;28;20679;-63
2022/04/25 07:13:03;;;;;;;0.20;0.20;;;8.90;99.90;;;9.34;100.00;100189.31;4989591;28;20208;-63
2022/04/25 07:15:33;;;;;;;0.20;0.20;;;9.00;99.90;;;9.43;100.00;100167.41;5008505;28;20210;-63
2022/04/25 07:18:01;;;;;;;0.20;0.20;;;9.20;99.90;;;9.53;100.00;100148.13;5015230;28;20238;-63
2022/04/25 07:20:28;;;;;;;0.20;0.20;;;9.30;99.90;;;9.77;100.00;100140.41;5001688;28;20207;-63
2022/04/25 07:31:19;;;;;;;0.10;0.10;;;9.70;99.90;;;9.90;100.00;100109.69;5016564;28;20209;-63
2022/04/25 07:33:47;;;;;;;0.20;0.20;;;9.90;99.90;;;9.93;100.00;100091.22;5015506;28;20203;-63
2022/04/25 07:36:17;;;;;;;0.10;0.10;;;9.90;99.90;;;10.19;100.00;100101.94;5008450;28;20195;-63
2022/04/25 07:38:46;;;;;;;0.17;0.17;;;10.10;99.90;;;9.94;100.00;100063.94;5003522;28;20230;-64
2022/04/25 07:41:14;;;;;;;0.10;0.10;;;10.10;99.90;;;10.27;100.00;100087.91;5031722;28;20203;-63
2022/04/25 07:43:43;;;;;;;0.10;0.10;;;10.20;99.90;;;10.39;100.00;100079.16;4983516;28;20215;-64
2022/04/25 07:46:13;;;;;;;0.10;0.10;;;10.30;99.90;;;10.50;100.00;100076.59;5006451;28;20210;-62
2022/04/25 07:48:41;;;;;;;0.20;0.20;;;10.40;99.90;;;10.64;100.00;100076.63;5003151;28;20223;-64
2022/04/25 07:51:09;;;;;;;0.10;0.10;;;10.60;99.90;;;10.54;100.00;100066.03;5018878;28;20204;-63
2022/04/25 07:53:37;;;;;;;0.10;0.10;;;10.60;99.90;;;10.58;100.00;100070.44;5000092;28;20204;-63
2022/04/25 07:56:05;;;;;;;0.20;0.20;;;10.60;99.90;;;10.58;100.00;100053.69;4986784;28;20208;-64
2022/04/25 07:58:34;;;;;;;0.20;0.20;;;10.80;99.90;;;10.78;100.00;100080.19;5036368;28;20235;-63
2022/04/25 08:01:04;;;;;;;0.82;0.82;;;10.50;99.90;;;11.05;100.00;100097.88;4998936;28;20470;-63
2022/04/25 08:03:34;;;;;;;0.20;0.20;;;10.90;99.90;;;11.12;100.00;100075.84;5017541;28;20230;-64
2022/04/25 08:06:04;;;;;;;0.10;0.10;;;11.10;99.90;;;11.11;100.00;100066.13;4999462;28;20208;-63
2022/04/25 08:08:32;;;;;;;0.20;0.20;;;11.20;99.90;;;11.10;100.00;100054.66;5038801;28;20227;-63
2022/04/25 08:11:01;;;;;;;0.10;0.10;;;11.20;99.90;;;11.27;100.00;100067.91;4997694;28;20211;-64
2022/04/25 08:17:59;;;;;;;0.85;0.85;;;11.50;99.90;;;12.15;100.00;100118.22;5001539;28;20690;-64
2022/04/25 08:19:10;;;;;;;0.15;0.15;;;11.70;99.90;;;12.47;100.00;100093.34;4995315;28;20222;-64
2022/04/25 08:21:44;;;;;;;0.10;0.10;;;12.20;99.90;;;12.28;100.00;100052.78;4999193;28;20214;-63
2022/04/25 08:24:13;;;;;;;0.10;0.10;;;12.50;99.90;;;12.42;100.00;100061.56;5015438;28;20234;-64
2022/04/25 08:26:41;;;;;;;0.10;0.10;;;12.60;99.90;;;11.92;100.00;100011.38;5002994;28;20211;-63
2022/04/25 08:29:09;;;;;;;0.10;0.10;;;12.40;99.90;;;12.03;100.00;100029.91;5015797;28;20227;-64
2022/04/25 08:31:38;;;;;;;0.20;0.20;;;12.40;99.90;;;11.97;100.00;100022.84;4984092;28;20207;-64
2022/04/25 08:34:08;;;;;;;0.10;0.10;;;12.20;99.90;;;12.45;100.00;100032.38;4987220;28;20220;-64
2022/04/25 08:36:36;;;;;;;0.10;0.10;;;12.50;99.90;;;12.03;100.00;99995.44;5009510;28;20248;-63
2022/04/25 08:39:05;;;;;;;0.10;0.10;;;12.50;99.90;;;12.94;100.00;100077.19;4985921;28;20234;-64
2022/04/25 08:41:51;;;;;;;0.10;0.10;;;12.70;99.90;;;13.15;100.00;100060.25;5011435;28;20199;-64
2022/04/25 08:44:21;;;;;;;0.10;0.10;;;13.20;99.90;;;13.00;100.00;100016.13;5043468;28;20237;-64
2022/04/25 08:46:52;;;;;;;0.10;0.10;;;13.30;99.90;;;13.10;100.00;99982.44;5034135;28;20229;-63
2022/04/25 08:49:21;;;;;;;0.10;0.10;;;13.70;99.90;;;13.64;100.00;100063.41;5025917;28;20223;-64
2022/04/25 08:51:58;;;;;;;0.10;0.10;;;13.70;99.90;;;13.89;100.00;100021.53;4990106;28;20203;-65
2022/04/25 08:54:29;;;;;;;0.10;0.10;;;14.20;99.90;;;13.19;100.00;99945.22;4996068;28;20207;-64
2022/04/25 08:56:59;;;;;;;0.22;0.22;;;13.90;99.90;;;13.36;100.00;99971.59;5009083;28;20210;-64
2022/04/25 08:59:27;;;;;;;0.10;0.10;;;13.80;99.90;;;13.44;100.00;99983.03;5014426;28;20215;-64
2022/04/25 09:01:56;;;;;;;0.10;0.10;;;13.70;99.90;;;13.94;100.00;99984.25;5029033;28;20574;-64
2022/04/25 09:04:25;;;;;;;0.10;0.10;;;14.10;99.90;;;14.45;100.00;100004.06;4993560;28;20211;-64
2022/04/25 09:06:55;;;;;;;0.00;0.00;;;14.70;99.90;;;15.41;100.00;100063.84;5019880;28;20215;-64
2022/04/25 09:09:23;;;;;;;0.10;0.10;;;15.40;99.90;;;14.06;100.00;99883.09;5027528;28;20238;-64
2022/04/25 09:14:40;;;;;;;0.30;0.30;;;15.40;99.90;;;14.71;100.00;99940.69;5025073;28;20666;-63
2022/04/25 09:17:08;;;;;;;0.10;0.10;;;15.80;99.90;;;15.11;100.00;99961.34;5008828;28;20207;-63
2022/04/25 09:19:38;;;;;;;0.00;0.00;;;16.30;99.90;;;14.80;100.00;99882.88;5016092;28;20223;-63
2022/04/25 09:22:08;;;;;;;0.10;0.10;;;16.70;99.90;;;15.13;100.00;99922.25;5045114;28;20202;-64
2022/04/25 09:24:44;;;;;;;0.28;0.28;;;16.90;99.90;;;14.64;98.81;99845.00;5009985;28;20223;-63
2022/04/25 09:27:18;;;;;;;0.10;0.10;;;16.70;99.90;;;14.43;100.00;99853.34;5017440;28;20214;-63
2022/04/25 09:29:48;;;;;;;0.10;0.10;;;16.70;99.90;;;14.34;100.00;99830.41;5009990;28;20223;-64
2022/04/25 09:32:18;;;;;;;0.68;0.55;;;16.50;99.90;;;14.12;100.00;99816.53;4998524;28;20218;-64
2022/04/25 09:35:02;;;;;;;0.00;0.00;;;16.30;99.90;;;14.52;99.44;99839.88;4995086;28;20554;-64
2022/04/25 09:37:46;;;;;;;0.10;0.10;;;16.50;99.90;;;14.28;98.34;99783.47;5008337;28;20203;-64
2022/04/25 09:40:21;;;;;;;0.03;0.03;;;16.80;99.90;;;14.67;100.00;99872.44;5009393;28;20199;-64
2022/04/25 09:43:05;;;;;;;0.85;0.63;;;16.80;99.90;;;14.75;98.35;99844.81;5006400;28;20200;-63
2022/04/25 09:45:35;;;;;;;0.10;0.10;;;17.20;99.90;;;13.76;98.18;99708.97;5041890;28;20215;-63
2022/04/25 09:48:25;;;;;;;0.00;0.00;;;16.50;99.90;;;15.63;97.18;99902.69;4991164;28;20238;-63
2022/04/25 09:51:02;;;;;;;0.00;0.00;;;16.70;99.90;;;14.86;94.92;99774.53;5007474;28;20230;-65
2022/04/25 09:53:55;;;;;;;0.00;0.00;;;17.30;99.90;;;14.48;96.37;99747.72;4983839;28;20204;-63
2022/04/25 09:56:25;;;;;;;0.00;0.00;;;17.00;99.90;;;14.80;95.83;99797.72;5017188;28;20219;-63
2022/04/25 09:59:07;;;;;;;0.00;0.00;;;17.10;99.90;;;14.91;95.65;99779.75;5042622;28;20613;-63
2022/04/25 10:01:39;;;;;;;0.00;0.00;;;17.50;99.90;;;15.09;94.58;99783.84;5021877;28;20210;-63
2022/04/25 10:04:32;;;;;;;0.10;0.10;;;17.40;99.90;;;15.65;91.54;99802.25;5039077;28;20253;-64
2022/04/25 10:07:03;;;;;;;0.00;0.00;;;17.80;99.90;;;14.25;93.37;99631.94;5035964;28;20211;-64
2022/04/25 10:09:34;;;;;;;0.00;0.00;;;16.80;99.90;;;15.31;95.24;99801.16;5001160;28;20723;-63
2022/04/25 10:12:05;;;;;;;0.00;0.00;;;16.80;99.90;;;15.19;91.96;99734.81;5005472;28;20195;-63
2022/04/25 10:14:33;;;;;;;0.30;0.30;;;17.00;99.90;;;15.83;91.74;99797.44;4996182;28;20289;-63
2022/04/25 10:17:01;;;;;;;0.13;0.13;;;17.30;99.90;;;15.28;90.00;99681.34;5020089;28;20199;-63
2022/04/25 10:19:30;;;;;;;0.10;0.10;;;17.50;99.90;;;15.88;88.80;99760.88;5009359;28;20241;-63
2022/04/25 10:21:59;;;;;;;0.10;0.10;;;17.60;99.90;;;16.20;87.82;99749.44;4995505;28;20222;-63
2022/04/25 10:24:27;;;;;;;0.00;0.00;;;18.00;99.90;;;15.33;86.82;99573.78;4975424;28;20192;-63
2022/04/25 10:26:57;;;;;;;0.20;0.20;;;17.90;99.90;;;15.77;87.04;99642.97;4994366;28;20207;-62
2022/04/25 10:29:31;;;;;;;0.15;0.15;;;17.50;99.90;;;16.36;88.35;99745.47;4995315;28;20243;-63
2022/04/25 10:32:01;;;;;;;0.10;0.10;;;17.20;99.90;;;16.46;85.54;99690.94;4992769;28;20221;-63
2022/04/25 10:34:51;;;;;;;0.05;0.05;;;17.40;99.90;;;16.49;81.52;99629.47;5025738;28;20234;-63
2022/04/25 10:37:40;;;;;;;0.10;0.10;;;17.80;99.90;;;16.67;81.15;99606.75;5021177;28;20207;-63
2022/04/25 10:40:16;;;;;;;0.00;0.00;;;18.10;99.90;;;15.86;80.04;99472.97;4998050;28;20226;-64
2022/04/25 10:46:01;;;;;;;0.08;0.08;;;17.40;99.90;;;15.78;80.53;99445.66;5019028;28;20227;-64
2022/04/25 10:49:06;;;;;;;0.00;0.00;;;17.50;99.90;;;16.41;79.51;99530.09;5009354;28;20227;-64
2022/04/25 10:51:41;;;;;;;0.00;0.00;;;18.00;99.90;;;16.98;76.75;99549.78;5015378;28;20211;-63
2022/04/25 10:54:12;;;;;;;0.10;0.10;;;18.40;99.90;;;17.01;79.06;99571.06;5001630;28;20199;-64
2022/04/25 10:57:09;;;;;;;0.00;0.00;;;18.20;99.90;;;16.55;78.41;99506.53;5011925;28;20200;-64
2022/04/25 10:59:38;;;;;;;0.03;0.03;;;17.40;99.90;;;17.40;77.21;99579.63;5017212;28;20239;-63
2022/04/25 11:02:29;;;;;;;0.10;0.10;;;17.80;99.90;;;17.76;76.23;99583.78;5004646;28;20210;-63